sensor_id;sensor_type;location;lat;lon;timestamp;P1;durP1;ratioP1;P2;durP2;ratioP2
23236;SDS011;11787;52.018;8.570;2022-08-07T00:00:21;6.13;;;2.90;;
23236;SDS011;11787;52.018;8.570;2022-08-07T00:02:47;6.72;;;2.55;;
23236;SDS011;11787;52.018;8.570;2022-08-07T00:05:13;3.72;;;2.40;;
23236;SDS011;11787;52.018;8.570;2022-08-07T00:07:38;4.93;;;2.28;;
23236;SDS011;11787;52.018;8.570;2022-08-07T00:10:04;5.47;;;3.15;;
23236;SDS011;11787;52.018;8.570;2022-08-07T00:12:30;5.68;;;3.55;;
23236;SDS011;11787;52.018;8.570;2022-08-07T00:14:56;4.50;;;2.80;;
23236;SDS011;11787;52.018;8.570;2022-08-07T00:17:23;3.20;;;2.33;;
23236;SDS011;11787;52.018;8.570;2022-08-07T00:19:48;5.63;;;2.38;;
23236;SDS011;11787;52.018;8.570;2022-08-07T00:22:15;4.47;;;2.72;;
23236;SDS011;11787;52.018;8.570;2022-08-07T00:24:40;3.13;;;2.10;;
23236;SDS011;11787;52.018;8.570;2022-08-07T00:27:06;5.53;;;2.03;;
23236;SDS011;11787;52.018;8.570;2022-08-07T00:29:32;3.90;;;2.28;;
23236;SDS011;11787;52.018;8.570;2022-08-07T00:31:58;2.75;;;2.17;;
23236;SDS011;11787;52.018;8.570;2022-08-07T00:34:26;5.55;;;2.20;;
23236;SDS011;11787;52.018;8.570;2022-08-07T00:36:52;3.53;;;2.03;;
23236;SDS011;11787;52.018;8.570;2022-08-07T00:39:19;3.20;;;2.08;;
23236;SDS011;11787;52.018;8.570;2022-08-07T00:41:52;3.53;;;2.20;;
23236;SDS011;11787;52.018;8.570;2022-08-07T00:46:44;2.72;;;2.15;;
23236;SDS011;11787;52.018;8.570;2022-08-07T00:49:10;2.90;;;2.10;;
23236;SDS011;11787;52.018;8.570;2022-08-07T00:51:36;3.70;;;2.13;;
23236;SDS011;11787;52.018;8.570;2022-08-07T00:54:02;4.28;;;2.50;;
23236;SDS011;11787;52.018;8.570;2022-08-07T00:56:28;4.90;;;2.33;;
23236;SDS011;11787;52.018;8.570;2022-08-07T00:58:54;3.10;;;2.33;;
23236;SDS011;11787;52.018;8.570;2022-08-07T01:01:20;3.80;;;2.25;;
23236;SDS011;11787;52.018;8.570;2022-08-07T01:03:47;4.22;;;2.13;;
23236;SDS011;11787;52.018;8.570;2022-08-07T01:06:15;4.47;;;2.10;;
23236;SDS011;11787;52.018;8.570;2022-08-07T01:08:41;2.88;;;2.20;;
23236;SDS011;11787;52.018;8.570;2022-08-07T01:11:08;2.80;;;2.20;;
23236;SDS011;11787;52.018;8.570;2022-08-07T01:13:34;4.03;;;2.47;;
23236;SDS011;11787;52.018;8.570;2022-08-07T01:16:01;4.57;;;1.85;;
23236;SDS011;11787;52.018;8.570;2022-08-07T01:18:27;3.97;;;2.17;;
23236;SDS011;11787;52.018;8.570;2022-08-07T01:23:36;2.75;;;2.03;;
23236;SDS011;11787;52.018;8.570;2022-08-07T01:26:03;3.92;;;2.20;;
23236;SDS011;11787;52.018;8.570;2022-08-07T01:28:29;3.72;;;2.38;;
23236;SDS011;11787;52.018;8.570;2022-08-07T01:30:55;3.42;;;2.17;;
23236;SDS011;11787;52.018;8.570;2022-08-07T01:33:22;6.60;;;2.72;;
23236;SDS011;11787;52.018;8.570;2022-08-07T01:35:49;5.05;;;2.22;;
23236;SDS011;11787;52.018;8.570;2022-08-07T01:38:15;4.07;;;2.38;;
23236;SDS011;11787;52.018;8.570;2022-08-07T01:40:41;3.38;;;2.22;;
23236;SDS011;11787;52.018;8.570;2022-08-07T01:43:09;5.43;;;2.40;;
23236;SDS011;11787;52.018;8.570;2022-08-07T01:45:35;3.40;;;2.45;;
23236;SDS011;11787;52.018;8.570;2022-08-07T01:48:01;3.30;;;2.15;;
23236;SDS011;11787;52.018;8.570;2022-08-07T01:50:28;4.10;;;2.25;;
23236;SDS011;11787;52.018;8.570;2022-08-07T01:52:55;3.78;;;2.33;;
23236;SDS011;11787;52.018;8.570;2022-08-07T01:55:24;4.40;;;2.40;;
23236;SDS011;11787;52.018;8.570;2022-08-07T01:57:58;2.53;;;2.10;;
23236;SDS011;11787;52.018;8.570;2022-08-07T02:00:27;3.78;;;2.28;;
23236;SDS011;11787;52.018;8.570;2022-08-07T02:02:57;4.25;;;2.38;;
23236;SDS011;11787;52.018;8.570;2022-08-07T02:05:33;4.68;;;2.60;;
23236;SDS011;11787;52.018;8.570;2022-08-07T02:08:07;3.70;;;2.35;;
23236;SDS011;11787;52.018;8.570;2022-08-07T02:10:39;3.20;;;2.40;;
23236;SDS011;11787;52.018;8.570;2022-08-07T02:13:06;5.03;;;2.30;;
23236;SDS011;11787;52.018;8.570;2022-08-07T02:15:33;4.07;;;2.30;;
23236;SDS011;11787;52.018;8.570;2022-08-07T02:18:01;3.55;;;1.92;;
23236;SDS011;11787;52.018;8.570;2022-08-07T02:20:28;3.67;;;2.40;;
23236;SDS011;11787;52.018;8.570;2022-08-07T02:22:56;4.45;;;2.15;;
23236;SDS011;11787;52.018;8.570;2022-08-07T02:25:26;3.38;;;2.10;;
23236;SDS011;11787;52.018;8.570;2022-08-07T02:27:54;5.55;;;2.65;;
23236;SDS011;11787;52.018;8.570;2022-08-07T02:30:23;3.13;;;2.15;;
23236;SDS011;11787;52.018;8.570;2022-08-07T02:32:50;3.78;;;2.30;;
23236;SDS011;11787;52.018;8.570;2022-08-07T02:35:16;2.78;;;2.10;;
23236;SDS011;11787;52.018;8.570;2022-08-07T02:37:43;3.83;;;2.35;;
23236;SDS011;11787;52.018;8.570;2022-08-07T02:40:11;4.13;;;3.00;;
23236;SDS011;11787;52.018;8.570;2022-08-07T02:42:37;5.05;;;2.30;;
23236;SDS011;11787;52.018;8.570;2022-08-07T02:45:05;3.20;;;2.28;;
23236;SDS011;11787;52.018;8.570;2022-08-07T02:47:32;4.50;;;2.65;;
23236;SDS011;11787;52.018;8.570;2022-08-07T02:49:59;4.47;;;2.30;;
23236;SDS011;11787;52.018;8.570;2022-08-07T02:52:26;4.00;;;2.30;;
23236;SDS011;11787;52.018;8.570;2022-08-07T02:54:57;5.18;;;2.45;;
23236;SDS011;11787;52.018;8.570;2022-08-07T02:57:26;3.03;;;2.40;;
23236;SDS011;11787;52.018;8.570;2022-08-07T02:59:53;5.35;;;2.33;;
23236;SDS011;11787;52.018;8.570;2022-08-07T03:02:20;4.32;;;2.75;;
23236;SDS011;11787;52.018;8.570;2022-08-07T03:04:46;3.40;;;2.65;;
23236;SDS011;11787;52.018;8.570;2022-08-07T03:07:13;3.25;;;2.72;;
23236;SDS011;11787;52.018;8.570;2022-08-07T03:09:40;6.95;;;2.10;;
23236;SDS011;11787;52.018;8.570;2022-08-07T03:12:06;4.30;;;2.38;;
23236;SDS011;11787;52.018;8.570;2022-08-07T03:14:33;3.75;;;2.38;;
23236;SDS011;11787;52.018;8.570;2022-08-07T03:17:00;3.72;;;2.40;;
23236;SDS011;11787;52.018;8.570;2022-08-07T03:19:27;3.30;;;2.60;;
23236;SDS011;11787;52.018;8.570;2022-08-07T03:21:54;3.88;;;2.40;;
23236;SDS011;11787;52.018;8.570;2022-08-07T03:24:20;3.90;;;2.25;;
23236;SDS011;11787;52.018;8.570;2022-08-07T03:26:45;4.40;;;2.33;;
23236;SDS011;11787;52.018;8.570;2022-08-07T03:29:14;4.70;;;2.30;;
23236;SDS011;11787;52.018;8.570;2022-08-07T03:31:40;4.28;;;3.22;;
23236;SDS011;11787;52.018;8.570;2022-08-07T03:34:07;3.70;;;2.40;;
23236;SDS011;11787;52.018;8.570;2022-08-07T03:36:35;3.92;;;2.38;;
23236;SDS011;11787;52.018;8.570;2022-08-07T03:39:04;3.88;;;2.70;;
23236;SDS011;11787;52.018;8.570;2022-08-07T03:41:33;4.53;;;2.40;;
23236;SDS011;11787;52.018;8.570;2022-08-07T03:44:00;4.30;;;2.80;;
23236;SDS011;11787;52.018;8.570;2022-08-07T03:46:26;2.40;;;2.00;;
23236;SDS011;11787;52.018;8.570;2022-08-07T03:48:53;4.50;;;2.30;;
23236;SDS011;11787;52.018;8.570;2022-08-07T03:51:19;3.00;;;2.70;;
23236;SDS011;11787;52.018;8.570;2022-08-07T03:53:45;4.35;;;2.33;;
23236;SDS011;11787;52.018;8.570;2022-08-07T03:56:12;3.22;;;2.45;;
23236;SDS011;11787;52.018;8.570;2022-08-07T03:58:42;2.72;;;2.08;;
23236;SDS011;11787;52.018;8.570;2022-08-07T04:01:08;6.20;;;2.42;;
23236;SDS011;11787;52.018;8.570;2022-08-07T04:03:35;3.85;;;2.50;;
23236;SDS011;11787;52.018;8.570;2022-08-07T04:06:01;3.33;;;2.13;;
23236;SDS011;11787;52.018;8.570;2022-08-07T04:08:26;3.70;;;2.30;;
23236;SDS011;11787;52.018;8.570;2022-08-07T04:10:53;3.33;;;2.53;;
23236;SDS011;11787;52.018;8.570;2022-08-07T04:13:20;3.05;;;2.28;;
23236;SDS011;11787;52.018;8.570;2022-08-07T04:15:46;3.78;;;2.22;;
23236;SDS011;11787;52.018;8.570;2022-08-07T04:18:13;3.38;;;2.28;;
23236;SDS011;11787;52.018;8.570;2022-08-07T04:20:39;3.63;;;2.67;;
23236;SDS011;11787;52.018;8.570;2022-08-07T04:23:05;3.72;;;2.50;;
23236;SDS011;11787;52.018;8.570;2022-08-07T04:25:32;2.85;;;2.22;;
23236;SDS011;11787;52.018;8.570;2022-08-07T04:28:02;4.05;;;2.20;;
23236;SDS011;11787;52.018;8.570;2022-08-07T04:30:28;3.78;;;2.40;;
23236;SDS011;11787;52.018;8.570;2022-08-07T04:32:54;4.65;;;2.20;;
23236;SDS011;11787;52.018;8.570;2022-08-07T04:35:20;3.05;;;2.40;;
23236;SDS011;11787;52.018;8.570;2022-08-07T04:37:45;3.58;;;2.47;;
23236;SDS011;11787;52.018;8.570;2022-08-07T04:40:11;3.75;;;2.28;;
23236;SDS011;11787;52.018;8.570;2022-08-07T04:42:37;3.80;;;2.40;;
23236;SDS011;11787;52.018;8.570;2022-08-07T04:45:02;4.10;;;2.10;;
23236;SDS011;11787;52.018;8.570;2022-08-07T04:47:37;2.90;;;1.90;;
23236;SDS011;11787;52.018;8.570;2022-08-07T04:50:13;4.20;;;2.60;;
23236;SDS011;11787;52.018;8.570;2022-08-07T04:52:53;3.13;;;2.40;;
23236;SDS011;11787;52.018;8.570;2022-08-07T04:55:56;3.78;;;2.40;;
23236;SDS011;11787;52.018;8.570;2022-08-07T04:58:33;3.72;;;2.45;;
23236;SDS011;11787;52.018;8.570;2022-08-07T05:01:11;4.80;;;3.08;;
23236;SDS011;11787;52.018;8.570;2022-08-07T05:06:13;5.13;;;3.22;;
23236;SDS011;11787;52.018;8.570;2022-08-07T05:08:54;3.67;;;2.95;;
23236;SDS011;11787;52.018;8.570;2022-08-07T05:14:11;4.75;;;2.80;;
23236;SDS011;11787;52.018;8.570;2022-08-07T05:16:41;4.20;;;2.90;;
23236;SDS011;11787;52.018;8.570;2022-08-07T05:19:12;3.58;;;2.90;;
23236;SDS011;11787;52.018;8.570;2022-08-07T05:21:44;4.63;;;2.90;;
23236;SDS011;11787;52.018;8.570;2022-08-07T05:24:14;3.90;;;2.72;;
23236;SDS011;11787;52.018;8.570;2022-08-07T05:26:41;3.15;;;2.75;;
23236;SDS011;11787;52.018;8.570;2022-08-07T05:29:08;3.63;;;2.88;;
23236;SDS011;11787;52.018;8.570;2022-08-07T05:31:39;3.75;;;2.80;;
23236;SDS011;11787;52.018;8.570;2022-08-07T05:34:11;3.20;;;2.60;;
23236;SDS011;11787;52.018;8.570;2022-08-07T05:36:39;5.10;;;2.50;;
23236;SDS011;11787;52.018;8.570;2022-08-07T05:39:07;4.65;;;2.30;;
23236;SDS011;11787;52.018;8.570;2022-08-07T05:41:34;4.72;;;2.88;;
23236;SDS011;11787;52.018;8.570;2022-08-07T05:44:02;2.85;;;2.38;;
23236;SDS011;11787;52.018;8.570;2022-08-07T05:46:29;3.15;;;2.08;;
23236;SDS011;11787;52.018;8.570;2022-08-07T05:48:55;3.00;;;2.10;;
23236;SDS011;11787;52.018;8.570;2022-08-07T05:51:21;2.63;;;2.17;;
23236;SDS011;11787;52.018;8.570;2022-08-07T05:53:48;4.75;;;2.53;;
23236;SDS011;11787;52.018;8.570;2022-08-07T05:56:15;3.75;;;2.80;;
23236;SDS011;11787;52.018;8.570;2022-08-07T05:58:42;3.35;;;2.00;;
23236;SDS011;11787;52.018;8.570;2022-08-07T06:01:11;2.53;;;2.33;;
23236;SDS011;11787;52.018;8.570;2022-08-07T06:03:38;4.50;;;2.30;;
23236;SDS011;11787;52.018;8.570;2022-08-07T06:06:08;3.30;;;2.15;;
23236;SDS011;11787;52.018;8.570;2022-08-07T06:08:36;3.65;;;2.30;;
23236;SDS011;11787;52.018;8.570;2022-08-07T06:11:03;3.88;;;2.38;;
23236;SDS011;11787;52.018;8.570;2022-08-07T06:13:29;4.55;;;2.15;;
23236;SDS011;11787;52.018;8.570;2022-08-07T06:15:55;3.15;;;2.13;;
23236;SDS011;11787;52.018;8.570;2022-08-07T06:18:23;4.93;;;2.08;;
23236;SDS011;11787;52.018;8.570;2022-08-07T06:20:49;4.38;;;2.30;;
23236;SDS011;11787;52.018;8.570;2022-08-07T06:23:17;2.50;;;2.20;;
23236;SDS011;11787;52.018;8.570;2022-08-07T06:25:42;3.83;;;2.40;;
23236;SDS011;11787;52.018;8.570;2022-08-07T06:28:09;3.40;;;2.15;;
23236;SDS011;11787;52.018;8.570;2022-08-07T06:30:35;3.28;;;2.30;;
23236;SDS011;11787;52.018;8.570;2022-08-07T06:33:03;3.35;;;2.13;;
23236;SDS011;11787;52.018;8.570;2022-08-07T06:35:30;6.28;;;2.42;;
23236;SDS011;11787;52.018;8.570;2022-08-07T06:37:56;4.38;;;2.60;;
23236;SDS011;11787;52.018;8.570;2022-08-07T06:40:22;4.13;;;2.50;;
23236;SDS011;11787;52.018;8.570;2022-08-07T06:42:48;4.00;;;2.13;;
23236;SDS011;11787;52.018;8.570;2022-08-07T06:45:16;3.40;;;1.95;;
23236;SDS011;11787;52.018;8.570;2022-08-07T06:47:44;3.88;;;2.50;;
23236;SDS011;11787;52.018;8.570;2022-08-07T06:50:11;4.63;;;2.10;;
23236;SDS011;11787;52.018;8.570;2022-08-07T06:52:38;3.90;;;2.33;;
23236;SDS011;11787;52.018;8.570;2022-08-07T06:55:10;3.35;;;1.80;;
23236;SDS011;11787;52.018;8.570;2022-08-07T06:57:43;2.65;;;2.13;;
23236;SDS011;11787;52.018;8.570;2022-08-07T07:00:09;5.07;;;2.25;;
23236;SDS011;11787;52.018;8.570;2022-08-07T07:02:36;3.88;;;2.20;;
23236;SDS011;11787;52.018;8.570;2022-08-07T07:05:03;4.50;;;2.10;;
23236;SDS011;11787;52.018;8.570;2022-08-07T07:07:30;3.65;;;2.03;;
23236;SDS011;11787;52.018;8.570;2022-08-07T07:09:56;4.72;;;1.88;;
23236;SDS011;11787;52.018;8.570;2022-08-07T07:18:13;4.55;;;2.50;;
23236;SDS011;11787;52.018;8.570;2022-08-07T07:20:55;3.40;;;1.92;;
23236;SDS011;11787;52.018;8.570;2022-08-07T07:23:27;3.95;;;2.28;;
23236;SDS011;11787;52.018;8.570;2022-08-07T07:25:58;2.60;;;1.83;;
23236;SDS011;11787;52.018;8.570;2022-08-07T07:28:28;3.92;;;2.13;;
23236;SDS011;11787;52.018;8.570;2022-08-07T07:33:57;6.82;;;2.22;;
23236;SDS011;11787;52.018;8.570;2022-08-07T07:36:26;3.80;;;2.00;;
23236;SDS011;11787;52.018;8.570;2022-08-07T07:38:54;3.22;;;2.20;;
23236;SDS011;11787;52.018;8.570;2022-08-07T07:41:20;4.95;;;2.40;;
23236;SDS011;11787;52.018;8.570;2022-08-07T07:43:48;3.08;;;1.88;;
23236;SDS011;11787;52.018;8.570;2022-08-07T07:46:16;2.10;;;1.77;;
23236;SDS011;11787;52.018;8.570;2022-08-07T07:48:43;4.05;;;1.88;;
23236;SDS011;11787;52.018;8.570;2022-08-07T07:51:12;3.22;;;2.00;;
23236;SDS011;11787;52.018;8.570;2022-08-07T07:53:40;5.57;;;2.17;;
23236;SDS011;11787;52.018;8.570;2022-08-07T07:56:08;3.08;;;1.92;;
23236;SDS011;11787;52.018;8.570;2022-08-07T07:58:36;3.72;;;2.38;;
23236;SDS011;11787;52.018;8.570;2022-08-07T08:01:03;2.80;;;2.30;;
23236;SDS011;11787;52.018;8.570;2022-08-07T08:03:30;3.58;;;1.90;;
23236;SDS011;11787;52.018;8.570;2022-08-07T08:05:59;3.15;;;1.88;;
23236;SDS011;11787;52.018;8.570;2022-08-07T08:08:27;5.10;;;2.35;;
23236;SDS011;11787;52.018;8.570;2022-08-07T08:10:56;3.80;;;2.00;;
23236;SDS011;11787;52.018;8.570;2022-08-07T08:13:23;2.17;;;1.83;;
23236;SDS011;11787;52.018;8.570;2022-08-07T08:15:51;2.55;;;1.73;;
23236;SDS011;11787;52.018;8.570;2022-08-07T08:18:17;5.18;;;2.00;;
23236;SDS011;11787;52.018;8.570;2022-08-07T08:20:46;3.40;;;2.47;;
23236;SDS011;11787;52.018;8.570;2022-08-07T08:23:13;3.10;;;1.90;;
23236;SDS011;11787;52.018;8.570;2022-08-07T08:26:16;2.28;;;1.70;;
23236;SDS011;11787;52.018;8.570;2022-08-07T08:29:02;4.18;;;1.80;;
23236;SDS011;11787;52.018;8.570;2022-08-07T08:31:29;3.33;;;2.08;;
23236;SDS011;11787;52.018;8.570;2022-08-07T08:33:58;2.83;;;1.65;;
23236;SDS011;11787;52.018;8.570;2022-08-07T08:36:28;3.15;;;1.55;;
23236;SDS011;11787;52.018;8.570;2022-08-07T08:38:56;3.63;;;1.40;;
23236;SDS011;11787;52.018;8.570;2022-08-07T08:41:42;2.65;;;1.70;;
23236;SDS011;11787;52.018;8.570;2022-08-07T08:46:55;1.70;;;1.30;;
23236;SDS011;11787;52.018;8.570;2022-08-07T08:58:07;2.45;;;0.93;;
23236;SDS011;11787;52.018;8.570;2022-08-07T11:26:15;1.23;;;0.70;;
23236;SDS011;11787;52.018;8.570;2022-08-07T11:28:55;1.42;;;0.60;;
23236;SDS011;11787;52.018;8.570;2022-08-07T11:31:36;0.82;;;0.70;;
23236;SDS011;11787;52.018;8.570;2022-08-07T17:10:05;1.23;;;1.13;;
23236;SDS011;11787;52.018;8.570;2022-08-07T17:12:55;2.75;;;0.98;;
23236;SDS011;11787;52.018;8.570;2022-08-07T17:15:46;2.88;;;1.10;;
23236;SDS011;11787;52.018;8.570;2022-08-07T17:18:27;3.25;;;1.20;;
23236;SDS011;11787;52.018;8.570;2022-08-07T17:21:01;1.13;;;1.00;;
23236;SDS011;11787;52.018;8.570;2022-08-07T17:23:36;2.90;;;1.10;;
23236;SDS011;11787;52.018;8.570;2022-08-07T17:29:06;2.00;;;1.30;;
23236;SDS011;11787;52.018;8.570;2022-08-07T17:31:48;3.15;;;1.73;;
23236;SDS011;11787;52.018;8.570;2022-08-07T17:34:28;2.58;;;1.25;;
23236;SDS011;11787;52.018;8.570;2022-08-07T17:37:04;2.97;;;1.40;;
23236;SDS011;11787;52.018;8.570;2022-08-07T17:39:48;2.85;;;1.25;;
23236;SDS011;11787;52.018;8.570;2022-08-07T17:45:18;2.45;;;1.42;;
23236;SDS011;11787;52.018;8.570;2022-08-07T17:48:04;3.00;;;1.30;;
23236;SDS011;11787;52.018;8.570;2022-08-07T17:53:11;1.83;;;1.25;;
23236;SDS011;11787;52.018;8.570;2022-08-07T17:55:59;2.20;;;1.48;;
23236;SDS011;11787;52.018;8.570;2022-08-07T17:58:32;2.25;;;1.27;;
23236;SDS011;11787;52.018;8.570;2022-08-07T18:01:18;1.52;;;1.15;;
23236;SDS011;11787;52.018;8.570;2022-08-07T18:03:59;3.28;;;1.75;;
23236;SDS011;11787;52.018;8.570;2022-08-07T18:06:59;1.73;;;1.30;;
23236;SDS011;11787;52.018;8.570;2022-08-07T18:09:28;1.85;;;1.30;;
23236;SDS011;11787;52.018;8.570;2022-08-07T18:12:01;3.20;;;1.90;;
23236;SDS011;11787;52.018;8.570;2022-08-07T18:20:08;3.53;;;1.90;;
23236;SDS011;11787;52.018;8.570;2022-08-07T18:22:41;2.13;;;1.90;;
23236;SDS011;11787;52.018;8.570;2022-08-07T18:25:22;2.22;;;1.60;;
23236;SDS011;11787;52.018;8.570;2022-08-07T18:44:25;3.10;;;1.70;;
23236;SDS011;11787;52.018;8.570;2022-08-07T18:47:17;4.28;;;2.10;;
23236;SDS011;11787;52.018;8.570;2022-08-07T19:00:21;2.75;;;2.08;;
23236;SDS011;11787;52.018;8.570;2022-08-07T19:06:09;3.92;;;1.85;;
23236;SDS011;11787;52.018;8.570;2022-08-07T19:11:26;3.35;;;2.15;;
23236;SDS011;11787;52.018;8.570;2022-08-07T19:13:55;4.10;;;2.42;;
23236;SDS011;11787;52.018;8.570;2022-08-07T19:16:36;4.28;;;2.50;;
23236;SDS011;11787;52.018;8.570;2022-08-07T19:24:51;6.40;;;2.70;;
23236;SDS011;11787;52.018;8.570;2022-08-07T19:27:19;4.38;;;2.67;;
23236;SDS011;11787;52.018;8.570;2022-08-07T19:29:55;4.07;;;2.40;;
23236;SDS011;11787;52.018;8.570;2022-08-07T19:32:22;3.90;;;2.38;;
23236;SDS011;11787;52.018;8.570;2022-08-07T19:34:56;2.90;;;2.00;;
23236;SDS011;11787;52.018;8.570;2022-08-07T19:37:24;2.53;;;2.00;;
23236;SDS011;11787;52.018;8.570;2022-08-07T19:39:57;3.90;;;2.25;;
23236;SDS011;11787;52.018;8.570;2022-08-07T19:42:25;7.53;;;2.42;;
23236;SDS011;11787;52.018;8.570;2022-08-07T19:44:54;3.90;;;2.53;;
23236;SDS011;11787;52.018;8.570;2022-08-07T19:47:24;3.13;;;2.50;;
23236;SDS011;11787;52.018;8.570;2022-08-07T19:49:53;3.55;;;2.30;;
23236;SDS011;11787;52.018;8.570;2022-08-07T19:52:23;4.53;;;3.00;;
23236;SDS011;11787;52.018;8.570;2022-08-07T19:54:50;11.95;;;9.18;;
23236;SDS011;11787;52.018;8.570;2022-08-07T19:57:21;11.82;;;5.30;;
23236;SDS011;11787;52.018;8.570;2022-08-07T20:00:01;5.75;;;3.20;;
23236;SDS011;11787;52.018;8.570;2022-08-07T20:02:40;4.38;;;2.83;;
23236;SDS011;11787;52.018;8.570;2022-08-07T20:05:11;3.53;;;2.53;;
23236;SDS011;11787;52.018;8.570;2022-08-07T20:07:39;3.70;;;2.70;;
23236;SDS011;11787;52.018;8.570;2022-08-07T20:10:11;2.92;;;2.40;;
23236;SDS011;11787;52.018;8.570;2022-08-07T20:12:40;6.32;;;2.35;;
23236;SDS011;11787;52.018;8.570;2022-08-07T20:15:09;4.28;;;2.30;;
23236;SDS011;11787;52.018;8.570;2022-08-07T20:17:39;4.22;;;2.40;;
23236;SDS011;11787;52.018;8.570;2022-08-07T20:20:06;4.75;;;2.55;;
23236;SDS011;11787;52.018;8.570;2022-08-07T20:22:32;3.92;;;2.75;;
23236;SDS011;11787;52.018;8.570;2022-08-07T20:25:03;3.65;;;2.67;;
23236;SDS011;11787;52.018;8.570;2022-08-07T20:27:32;4.35;;;2.47;;
23236;SDS011;11787;52.018;8.570;2022-08-07T20:30:01;4.05;;;2.70;;
23236;SDS011;11787;52.018;8.570;2022-08-07T20:32:36;4.57;;;2.47;;
23236;SDS011;11787;52.018;8.570;2022-08-07T20:35:15;6.25;;;2.35;;
23236;SDS011;11787;52.018;8.570;2022-08-07T20:37:49;4.20;;;2.08;;
23236;SDS011;11787;52.018;8.570;2022-08-07T20:40:18;4.95;;;2.45;;
23236;SDS011;11787;52.018;8.570;2022-08-07T20:42:47;4.85;;;2.20;;
23236;SDS011;11787;52.018;8.570;2022-08-07T20:45:15;5.65;;;2.42;;
23236;SDS011;11787;52.018;8.570;2022-08-07T20:47:45;3.63;;;2.10;;
23236;SDS011;11787;52.018;8.570;2022-08-07T20:50:12;3.75;;;2.20;;
23236;SDS011;11787;52.018;8.570;2022-08-07T20:52:39;3.42;;;2.00;;
23236;SDS011;11787;52.018;8.570;2022-08-07T20:55:05;3.22;;;2.15;;
23236;SDS011;11787;52.018;8.570;2022-08-07T20:57:41;5.63;;;2.58;;
23236;SDS011;11787;52.018;8.570;2022-08-07T21:00:12;5.25;;;2.45;;
23236;SDS011;11787;52.018;8.570;2022-08-07T21:02:42;5.82;;;2.80;;
23236;SDS011;11787;52.018;8.570;2022-08-07T21:05:25;4.85;;;2.58;;
23236;SDS011;11787;52.018;8.570;2022-08-07T21:07:55;2.92;;;2.40;;
23236;SDS011;11787;52.018;8.570;2022-08-07T21:10:24;5.43;;;2.63;;
23236;SDS011;11787;52.018;8.570;2022-08-07T21:12:53;3.22;;;2.50;;
23236;SDS011;11787;52.018;8.570;2022-08-07T21:15:22;3.20;;;2.70;;
23236;SDS011;11787;52.018;8.570;2022-08-07T21:17:49;5.28;;;2.80;;
23236;SDS011;11787;52.018;8.570;2022-08-07T21:20:16;5.75;;;3.00;;
23236;SDS011;11787;52.018;8.570;2022-08-07T21:22:51;3.95;;;2.50;;
23236;SDS011;11787;52.018;8.570;2022-08-07T21:25:40;4.15;;;2.40;;
23236;SDS011;11787;52.018;8.570;2022-08-07T21:28:22;5.25;;;2.60;;
23236;SDS011;11787;52.018;8.570;2022-08-07T21:37:06;3.05;;;2.30;;
23236;SDS011;11787;52.018;8.570;2022-08-07T21:39:45;5.60;;;2.60;;
23236;SDS011;11787;52.018;8.570;2022-08-07T21:47:57;4.15;;;2.63;;
23236;SDS011;11787;52.018;8.570;2022-08-07T21:50:34;4.57;;;2.90;;
23236;SDS011;11787;52.018;8.570;2022-08-07T21:53:23;3.13;;;2.22;;
23236;SDS011;11787;52.018;8.570;2022-08-07T21:59:10;2.67;;;2.42;;
23236;SDS011;11787;52.018;8.570;2022-08-07T22:01:49;3.67;;;2.80;;
23236;SDS011;11787;52.018;8.570;2022-08-07T22:04:20;5.22;;;3.00;;
23236;SDS011;11787;52.018;8.570;2022-08-07T22:07:11;4.00;;;2.67;;
23236;SDS011;11787;52.018;8.570;2022-08-07T22:09:39;4.85;;;2.92;;
23236;SDS011;11787;52.018;8.570;2022-08-07T22:17:40;3.45;;;2.90;;
23236;SDS011;11787;52.018;8.570;2022-08-07T22:22:45;4.30;;;2.58;;
23236;SDS011;11787;52.018;8.570;2022-08-07T22:31:01;3.88;;;3.03;;
23236;SDS011;11787;52.018;8.570;2022-08-07T22:33:45;3.65;;;2.72;;
23236;SDS011;11787;52.018;8.570;2022-08-07T22:42:20;5.18;;;2.80;;
23236;SDS011;11787;52.018;8.570;2022-08-07T22:44:50;3.67;;;2.90;;
23236;SDS011;11787;52.018;8.570;2022-08-07T22:56:02;4.90;;;3.70;;
23236;SDS011;11787;52.018;8.570;2022-08-07T23:15:51;4.97;;;3.55;;
23236;SDS011;11787;52.018;8.570;2022-08-07T23:21:42;5.20;;;3.27;;
23236;SDS011;11787;52.018;8.570;2022-08-07T23:30:11;3.83;;;3.00;;
23236;SDS011;11787;52.018;8.570;2022-08-07T23:32:54;3.20;;;2.90;;
23236;SDS011;11787;52.018;8.570;2022-08-07T23:35:53;4.28;;;3.20;;
23236;SDS011;11787;52.018;8.570;2022-08-07T23:47:33;5.40;;;3.10;;
23236;SDS011;11787;52.018;8.570;2022-08-07T23:49:50;3.90;;;3.03;;
23236;SDS011;11787;52.018;8.570;2022-08-07T23:55:02;5.40;;;3.33;;
23236;SDS011;11787;52.018;8.570;2022-08-07T23:57:52;4.90;;;2.95;;
